sensor_id;sensor_type;location;lat;lon;timestamp;P1;durP1;ratioP1;P2;durP2;ratioP2
35693;SDS011;21812;55.536;37.664;2023-04-01T00:00:22;14.32;;;9.77;;
35693;SDS011;21812;55.536;37.664;2023-04-01T00:02:48;14.13;;;9.43;;
35693;SDS011;21812;55.536;37.664;2023-04-01T00:05:16;13.40;;;9.93;;
35693;SDS011;21812;55.536;37.664;2023-04-01T00:07:42;13.30;;;9.07;;
35693;SDS011;21812;55.536;37.664;2023-04-01T00:10:09;14.55;;;10.10;;
35693;SDS011;21812;55.536;37.664;2023-04-01T00:12:36;18.92;;;11.13;;
35693;SDS011;21812;55.536;37.664;2023-04-01T00:15:02;16.40;;;10.27;;
35693;SDS011;21812;55.536;37.664;2023-04-01T00:17:29;15.05;;;9.98;;
35693;SDS011;21812;55.536;37.664;2023-04-01T00:19:55;14.05;;;9.57;;
35693;SDS011;21812;55.536;37.664;2023-04-01T00:22:22;14.15;;;9.35;;
35693;SDS011;21812;55.536;37.664;2023-04-01T00:24:48;16.25;;;10.77;;
35693;SDS011;21812;55.536;37.664;2023-04-01T00:27:14;16.10;;;9.70;;
35693;SDS011;21812;55.536;37.664;2023-04-01T00:29:44;15.32;;;9.75;;
35693;SDS011;21812;55.536;37.664;2023-04-01T00:32:11;13.27;;;9.27;;
35693;SDS011;21812;55.536;37.664;2023-04-01T00:34:37;18.67;;;10.30;;
35693;SDS011;21812;55.536;37.664;2023-04-01T00:37:05;14.02;;;10.02;;
35693;SDS011;21812;55.536;37.664;2023-04-01T00:39:32;17.45;;;10.68;;
35693;SDS011;21812;55.536;37.664;2023-04-01T00:41:59;13.50;;;9.45;;
35693;SDS011;21812;55.536;37.664;2023-04-01T00:44:27;14.45;;;10.10;;
35693;SDS011;21812;55.536;37.664;2023-04-01T00:46:55;16.40;;;9.65;;
35693;SDS011;21812;55.536;37.664;2023-04-01T00:49:22;17.35;;;10.65;;
35693;SDS011;21812;55.536;37.664;2023-04-01T00:51:53;16.45;;;10.68;;
35693;SDS011;21812;55.536;37.664;2023-04-01T00:54:21;14.55;;;10.00;;
35693;SDS011;21812;55.536;37.664;2023-04-01T00:56:50;14.13;;;9.60;;
35693;SDS011;21812;55.536;37.664;2023-04-01T00:59:25;17.20;;;11.07;;
35693;SDS011;21812;55.536;37.664;2023-04-01T01:01:57;15.85;;;9.70;;
35693;SDS011;21812;55.536;37.664;2023-04-01T01:04:31;14.30;;;9.68;;
35693;SDS011;21812;55.536;37.664;2023-04-01T01:15:30;15.80;;;10.88;;
35693;SDS011;21812;55.536;37.664;2023-04-01T01:25:59;18.25;;;10.60;;
35693;SDS011;21812;55.536;37.664;2023-04-01T01:31:42;17.88;;;10.82;;
35693;SDS011;21812;55.536;37.664;2023-04-01T01:37:23;17.30;;;10.32;;
35693;SDS011;21812;55.536;37.664;2023-04-01T01:39:56;19.13;;;11.32;;
35693;SDS011;21812;55.536;37.664;2023-04-01T01:42:29;17.38;;;10.40;;
35693;SDS011;21812;55.536;37.664;2023-04-01T01:44:58;16.35;;;10.82;;
35693;SDS011;21812;55.536;37.664;2023-04-01T01:47:26;15.68;;;11.15;;
35693;SDS011;21812;55.536;37.664;2023-04-01T01:49:54;17.85;;;10.63;;
35693;SDS011;21812;55.536;37.664;2023-04-01T01:52:21;17.27;;;11.27;;
35693;SDS011;21812;55.536;37.664;2023-04-01T01:54:52;15.85;;;10.23;;
35693;SDS011;21812;55.536;37.664;2023-04-01T01:57:25;16.35;;;11.50;;
35693;SDS011;21812;55.536;37.664;2023-04-01T01:59:58;16.17;;;11.30;;
35693;SDS011;21812;55.536;37.664;2023-04-01T02:02:41;18.30;;;11.95;;
35693;SDS011;21812;55.536;37.664;2023-04-01T02:05:10;13.60;;;9.80;;
35693;SDS011;21812;55.536;37.664;2023-04-01T02:07:40;17.38;;;11.25;;
35693;SDS011;21812;55.536;37.664;2023-04-01T02:10:10;15.77;;;10.40;;
35693;SDS011;21812;55.536;37.664;2023-04-01T02:12:38;15.20;;;10.27;;
35693;SDS011;21812;55.536;37.664;2023-04-01T02:15:09;14.98;;;10.52;;
35693;SDS011;21812;55.536;37.664;2023-04-01T02:17:38;16.58;;;9.88;;
35693;SDS011;21812;55.536;37.664;2023-04-01T02:20:09;16.17;;;10.27;;
35693;SDS011;21812;55.536;37.664;2023-04-01T02:22:41;13.93;;;10.40;;
35693;SDS011;21812;55.536;37.664;2023-04-01T02:25:12;16.42;;;10.82;;
35693;SDS011;21812;55.536;37.664;2023-04-01T02:27:42;15.57;;;10.98;;
35693;SDS011;21812;55.536;37.664;2023-04-01T02:30:10;17.33;;;10.80;;
35693;SDS011;21812;55.536;37.664;2023-04-01T02:32:40;16.42;;;11.00;;
35693;SDS011;21812;55.536;37.664;2023-04-01T02:35:10;17.10;;;11.07;;
35693;SDS011;21812;55.536;37.664;2023-04-01T02:37:37;15.15;;;10.45;;
35693;SDS011;21812;55.536;37.664;2023-04-01T02:40:04;17.20;;;11.23;;
35693;SDS011;21812;55.536;37.664;2023-04-01T02:42:32;16.58;;;10.55;;
35693;SDS011;21812;55.536;37.664;2023-04-01T02:44:58;19.10;;;11.73;;
35693;SDS011;21812;55.536;37.664;2023-04-01T02:47:25;16.67;;;11.50;;
35693;SDS011;21812;55.536;37.664;2023-04-01T02:49:51;20.83;;;11.98;;
35693;SDS011;21812;55.536;37.664;2023-04-01T02:52:23;20.00;;;12.05;;
35693;SDS011;21812;55.536;37.664;2023-04-01T02:54:50;15.52;;;11.48;;
35693;SDS011;21812;55.536;37.664;2023-04-01T02:57:15;18.50;;;11.68;;
35693;SDS011;21812;55.536;37.664;2023-04-01T02:59:41;19.52;;;11.73;;
35693;SDS011;21812;55.536;37.664;2023-04-01T03:02:07;17.88;;;11.63;;
35693;SDS011;21812;55.536;37.664;2023-04-01T03:04:32;17.50;;;12.15;;
35693;SDS011;21812;55.536;37.664;2023-04-01T03:06:58;16.08;;;11.75;;
35693;SDS011;21812;55.536;37.664;2023-04-01T03:09:24;17.77;;;11.75;;
35693;SDS011;21812;55.536;37.664;2023-04-01T03:11:49;15.95;;;11.43;;
35693;SDS011;21812;55.536;37.664;2023-04-01T03:14:15;14.30;;;9.38;;
35693;SDS011;21812;55.536;37.664;2023-04-01T03:16:41;15.88;;;10.68;;
35693;SDS011;21812;55.536;37.664;2023-04-01T03:19:07;12.93;;;9.80;;
35693;SDS011;21812;55.536;37.664;2023-04-01T03:21:33;12.75;;;9.50;;
35693;SDS011;21812;55.536;37.664;2023-04-01T03:23:59;14.70;;;9.05;;
35693;SDS011;21812;55.536;37.664;2023-04-01T03:26:27;13.60;;;8.43;;
35693;SDS011;21812;55.536;37.664;2023-04-01T03:28:53;14.75;;;9.02;;
35693;SDS011;21812;55.536;37.664;2023-04-01T03:31:19;15.13;;;10.38;;
35693;SDS011;21812;55.536;37.664;2023-04-01T03:33:50;14.10;;;9.00;;
35693;SDS011;21812;55.536;37.664;2023-04-01T03:36:16;13.93;;;9.43;;
35693;SDS011;21812;55.536;37.664;2023-04-01T03:38:43;14.85;;;10.13;;
35693;SDS011;21812;55.536;37.664;2023-04-01T03:41:12;15.98;;;10.20;;
35693;SDS011;21812;55.536;37.664;2023-04-01T03:43:39;14.98;;;9.32;;
35693;SDS011;21812;55.536;37.664;2023-04-01T03:46:05;15.90;;;11.02;;
35693;SDS011;21812;55.536;37.664;2023-04-01T03:48:30;14.77;;;10.02;;
35693;SDS011;21812;55.536;37.664;2023-04-01T03:50:56;13.43;;;9.52;;
35693;SDS011;21812;55.536;37.664;2023-04-01T03:53:22;14.13;;;9.60;;
35693;SDS011;21812;55.536;37.664;2023-04-01T03:55:49;14.95;;;10.45;;
35693;SDS011;21812;55.536;37.664;2023-04-01T03:58:16;12.63;;;9.25;;
35693;SDS011;21812;55.536;37.664;2023-04-01T04:00:43;14.75;;;9.95;;
35693;SDS011;21812;55.536;37.664;2023-04-01T04:03:09;12.13;;;9.15;;
35693;SDS011;21812;55.536;37.664;2023-04-01T04:05:35;12.82;;;9.23;;
35693;SDS011;21812;55.536;37.664;2023-04-01T04:08:01;15.48;;;9.95;;
35693;SDS011;21812;55.536;37.664;2023-04-01T04:10:27;15.10;;;9.38;;
35693;SDS011;21812;55.536;37.664;2023-04-01T04:12:54;14.15;;;8.85;;
35693;SDS011;21812;55.536;37.664;2023-04-01T04:15:22;15.20;;;10.05;;
35693;SDS011;21812;55.536;37.664;2023-04-01T04:17:48;15.43;;;9.90;;
35693;SDS011;21812;55.536;37.664;2023-04-01T04:20:14;13.68;;;9.10;;
35693;SDS011;21812;55.536;37.664;2023-04-01T04:22:40;17.23;;;10.15;;
35693;SDS011;21812;55.536;37.664;2023-04-01T04:25:07;13.52;;;9.40;;
35693;SDS011;21812;55.536;37.664;2023-04-01T04:27:34;11.52;;;8.90;;
35693;SDS011;21812;55.536;37.664;2023-04-01T04:30:12;14.77;;;9.88;;
35693;SDS011;21812;55.536;37.664;2023-04-01T04:32:38;18.60;;;11.23;;
35693;SDS011;21812;55.536;37.664;2023-04-01T04:35:05;12.63;;;8.68;;
35693;SDS011;21812;55.536;37.664;2023-04-01T04:37:32;14.30;;;9.68;;
35693;SDS011;21812;55.536;37.664;2023-04-01T04:39:58;15.77;;;10.48;;
35693;SDS011;21812;55.536;37.664;2023-04-01T04:42:24;13.57;;;9.70;;
35693;SDS011;21812;55.536;37.664;2023-04-01T04:44:54;16.90;;;10.45;;
35693;SDS011;21812;55.536;37.664;2023-04-01T04:47:20;13.43;;;9.60;;
35693;SDS011;21812;55.536;37.664;2023-04-01T04:49:46;15.70;;;10.23;;
35693;SDS011;21812;55.536;37.664;2023-04-01T04:52:12;14.63;;;10.13;;
35693;SDS011;21812;55.536;37.664;2023-04-01T04:54:37;14.95;;;10.43;;
35693;SDS011;21812;55.536;37.664;2023-04-01T04:57:04;14.82;;;9.73;;
35693;SDS011;21812;55.536;37.664;2023-04-01T04:59:34;14.48;;;9.73;;
35693;SDS011;21812;55.536;37.664;2023-04-01T05:02:32;17.88;;;10.45;;
35693;SDS011;21812;55.536;37.664;2023-04-01T05:04:58;58.75;;;35.88;;
35693;SDS011;21812;55.536;37.664;2023-04-01T05:07:23;17.63;;;11.38;;
35693;SDS011;21812;55.536;37.664;2023-04-01T05:09:49;16.50;;;10.02;;
35693;SDS011;21812;55.536;37.664;2023-04-01T05:12:15;16.67;;;10.70;;
35693;SDS011;21812;55.536;37.664;2023-04-01T05:15:02;15.90;;;9.98;;
35693;SDS011;21812;55.536;37.664;2023-04-01T05:17:29;18.55;;;10.50;;
35693;SDS011;21812;55.536;37.664;2023-04-01T05:19:56;15.15;;;9.93;;
35693;SDS011;21812;55.536;37.664;2023-04-01T05:22:22;15.18;;;10.48;;
35693;SDS011;21812;55.536;37.664;2023-04-01T05:24:49;15.13;;;9.63;;
35693;SDS011;21812;55.536;37.664;2023-04-01T05:27:15;14.73;;;10.25;;
35693;SDS011;21812;55.536;37.664;2023-04-01T05:29:41;16.75;;;10.95;;
35693;SDS011;21812;55.536;37.664;2023-04-01T05:32:14;17.45;;;11.20;;
35693;SDS011;21812;55.536;37.664;2023-04-01T05:34:40;13.75;;;10.18;;
35693;SDS011;21812;55.536;37.664;2023-04-01T05:37:07;15.98;;;10.07;;
35693;SDS011;21812;55.536;37.664;2023-04-01T05:39:39;17.00;;;11.75;;
35693;SDS011;21812;55.536;37.664;2023-04-01T05:42:06;15.27;;;10.02;;
35693;SDS011;21812;55.536;37.664;2023-04-01T05:44:33;16.55;;;10.93;;
35693;SDS011;21812;55.536;37.664;2023-04-01T05:47:02;16.95;;;11.63;;
35693;SDS011;21812;55.536;37.664;2023-04-01T05:49:30;19.17;;;11.93;;
35693;SDS011;21812;55.536;37.664;2023-04-01T05:51:56;15.55;;;10.60;;
35693;SDS011;21812;55.536;37.664;2023-04-01T05:54:22;15.52;;;9.75;;
35693;SDS011;21812;55.536;37.664;2023-04-01T05:56:49;16.80;;;11.05;;
35693;SDS011;21812;55.536;37.664;2023-04-01T05:59:17;18.35;;;11.30;;
35693;SDS011;21812;55.536;37.664;2023-04-01T06:01:43;16.02;;;11.15;;
35693;SDS011;21812;55.536;37.664;2023-04-01T06:04:15;18.27;;;11.40;;
35693;SDS011;21812;55.536;37.664;2023-04-01T06:06:44;17.33;;;9.82;;
35693;SDS011;21812;55.536;37.664;2023-04-01T06:09:32;22.45;;;12.07;;
35693;SDS011;21812;55.536;37.664;2023-04-01T06:25:53;19.60;;;11.43;;
35693;SDS011;21812;55.536;37.664;2023-04-01T06:28:56;18.33;;;10.50;;
35693;SDS011;21812;55.536;37.664;2023-04-01T06:46:02;16.38;;;10.10;;
35693;SDS011;21812;55.536;37.664;2023-04-01T06:52:31;18.92;;;10.75;;
35693;SDS011;21812;55.536;37.664;2023-04-01T06:55:39;19.17;;;10.90;;
35693;SDS011;21812;55.536;37.664;2023-04-01T06:58:37;22.63;;;10.98;;
35693;SDS011;21812;55.536;37.664;2023-04-01T07:01:13;18.42;;;10.77;;
35693;SDS011;21812;55.536;37.664;2023-04-01T07:03:44;18.00;;;10.70;;
35693;SDS011;21812;55.536;37.664;2023-04-01T07:06:27;18.05;;;10.48;;
35693;SDS011;21812;55.536;37.664;2023-04-01T07:09:02;19.75;;;10.85;;
35693;SDS011;21812;55.536;37.664;2023-04-01T07:12:15;21.35;;;10.48;;
35693;SDS011;21812;55.536;37.664;2023-04-01T07:17:54;17.05;;;10.25;;
35693;SDS011;21812;55.536;37.664;2023-04-01T07:20:35;15.07;;;10.25;;
35693;SDS011;21812;55.536;37.664;2023-04-01T07:23:08;14.23;;;9.68;;
35693;SDS011;21812;55.536;37.664;2023-04-01T07:26:21;13.35;;;9.10;;
35693;SDS011;21812;55.536;37.664;2023-04-01T07:29:05;14.73;;;8.68;;
35693;SDS011;21812;55.536;37.664;2023-04-01T07:31:59;15.57;;;9.95;;
35693;SDS011;21812;55.536;37.664;2023-04-01T07:53:48;15.32;;;9.25;;
35693;SDS011;21812;55.536;37.664;2023-04-01T07:56:42;17.08;;;10.45;;
35693;SDS011;21812;55.536;37.664;2023-04-01T07:59:40;16.70;;;9.57;;
35693;SDS011;21812;55.536;37.664;2023-04-01T08:05:28;15.73;;;9.70;;
35693;SDS011;21812;55.536;37.664;2023-04-01T08:11:10;14.70;;;8.95;;
35693;SDS011;21812;55.536;37.664;2023-04-01T08:14:11;11.30;;;8.35;;
35693;SDS011;21812;55.536;37.664;2023-04-01T08:22:41;15.55;;;8.70;;
35693;SDS011;21812;55.536;37.664;2023-04-01T08:25:29;14.93;;;9.80;;
35693;SDS011;21812;55.536;37.664;2023-04-01T08:33:24;22.52;;;9.15;;
35693;SDS011;21812;55.536;37.664;2023-04-01T08:38:48;12.10;;;7.93;;
35693;SDS011;21812;55.536;37.664;2023-04-01T08:50:06;10.40;;;7.25;;
35693;SDS011;21812;55.536;37.664;2023-04-01T08:56:02;7.50;;;5.53;;
35693;SDS011;21812;55.536;37.664;2023-04-01T09:19:59;8.68;;;6.45;;
35693;SDS011;21812;55.536;37.664;2023-04-01T09:36:44;9.10;;;5.93;;
35693;SDS011;21812;55.536;37.664;2023-04-01T09:39:23;5.85;;;4.50;;
35693;SDS011;21812;55.536;37.664;2023-04-01T09:44:35;5.60;;;4.25;;
35693;SDS011;21812;55.536;37.664;2023-04-01T10:13:07;5.28;;;4.50;;
35693;SDS011;21812;55.536;37.664;2023-04-01T10:18:44;8.50;;;4.93;;
35693;SDS011;21812;55.536;37.664;2023-04-01T10:27:20;5.32;;;4.25;;
35693;SDS011;21812;55.536;37.664;2023-04-01T10:47:32;6.03;;;3.63;;
35693;SDS011;21812;55.536;37.664;2023-04-01T11:26:08;4.47;;;3.20;;
35693;SDS011;21812;55.536;37.664;2023-04-01T11:29:03;6.30;;;3.45;;
35693;SDS011;21812;55.536;37.664;2023-04-01T11:32:02;3.95;;;2.80;;
35693;SDS011;21812;55.536;37.664;2023-04-01T11:43:45;4.55;;;3.25;;
35693;SDS011;21812;55.536;37.664;2023-04-01T11:57:41;4.75;;;3.13;;
35693;SDS011;21812;55.536;37.664;2023-04-01T12:00:23;6.93;;;4.00;;
35693;SDS011;21812;55.536;37.664;2023-04-01T12:06:02;8.15;;;3.70;;
35693;SDS011;21812;55.536;37.664;2023-04-01T12:08:39;7.88;;;4.82;;
35693;SDS011;21812;55.536;37.664;2023-04-01T12:11:16;5.00;;;3.47;;
35693;SDS011;21812;55.536;37.664;2023-04-01T12:14:16;9.95;;;4.22;;
35693;SDS011;21812;55.536;37.664;2023-04-01T12:16:55;4.20;;;3.20;;
35693;SDS011;21812;55.536;37.664;2023-04-01T12:19:42;4.47;;;2.95;;
35693;SDS011;21812;55.536;37.664;2023-04-01T12:28:00;5.20;;;3.40;;
35693;SDS011;21812;55.536;37.664;2023-04-01T12:33:24;5.68;;;3.95;;
35693;SDS011;21812;55.536;37.664;2023-04-01T12:50:15;4.32;;;2.13;;
35693;SDS011;21812;55.536;37.664;2023-04-01T12:55:35;5.68;;;3.83;;
35693;SDS011;21812;55.536;37.664;2023-04-01T13:09:23;4.80;;;3.40;;
35693;SDS011;21812;55.536;37.664;2023-04-01T13:12:06;4.45;;;3.60;;
35693;SDS011;21812;55.536;37.664;2023-04-01T13:20:51;6.68;;;3.88;;
35693;SDS011;21812;55.536;37.664;2023-04-01T13:26:58;6.47;;;4.13;;
35693;SDS011;21812;55.536;37.664;2023-04-01T13:29:35;7.30;;;3.97;;
35693;SDS011;21812;55.536;37.664;2023-04-01T13:32:23;5.85;;;4.10;;
35693;SDS011;21812;55.536;37.664;2023-04-01T13:43:28;5.85;;;4.28;;
35693;SDS011;21812;55.536;37.664;2023-04-01T13:46:08;8.07;;;4.82;;
35693;SDS011;21812;55.536;37.664;2023-04-01T13:59:44;7.35;;;5.35;;
35693;SDS011;21812;55.536;37.664;2023-04-01T14:21:55;7.43;;;5.13;;
35693;SDS011;21812;55.536;37.664;2023-04-01T14:40:45;8.95;;;6.07;;
35693;SDS011;21812;55.536;37.664;2023-04-01T14:54:11;13.48;;;6.18;;
35693;SDS011;21812;55.536;37.664;2023-04-01T14:56:51;9.85;;;5.97;;
35693;SDS011;21812;55.536;37.664;2023-04-01T14:59:35;8.77;;;5.70;;
35693;SDS011;21812;55.536;37.664;2023-04-01T15:07:56;10.88;;;6.80;;
35693;SDS011;21812;55.536;37.664;2023-04-01T15:23:59;11.02;;;7.28;;
35693;SDS011;21812;55.536;37.664;2023-04-01T15:27:04;9.95;;;7.38;;
35693;SDS011;21812;55.536;37.664;2023-04-01T15:32:25;9.38;;;6.13;;
35693;SDS011;21812;55.536;37.664;2023-04-01T15:47:21;9.63;;;6.28;;
35693;SDS011;21812;55.536;37.664;2023-04-01T15:50:06;10.60;;;6.75;;
35693;SDS011;21812;55.536;37.664;2023-04-01T15:52:49;9.93;;;6.93;;
35693;SDS011;21812;55.536;37.664;2023-04-01T15:55:26;8.65;;;5.95;;
35693;SDS011;21812;55.536;37.664;2023-04-01T15:58:32;11.25;;;6.20;;
35693;SDS011;21812;55.536;37.664;2023-04-01T16:26:13;8.25;;;4.65;;
35693;SDS011;21812;55.536;37.664;2023-04-01T16:28:53;6.45;;;5.00;;
35693;SDS011;21812;55.536;37.664;2023-04-01T16:31:37;9.27;;;5.70;;
35693;SDS011;21812;55.536;37.664;2023-04-01T16:34:08;9.48;;;5.60;;
35693;SDS011;21812;55.536;37.664;2023-04-01T16:36:51;6.03;;;4.40;;
35693;SDS011;21812;55.536;37.664;2023-04-01T16:39:56;6.72;;;4.68;;
35693;SDS011;21812;55.536;37.664;2023-04-01T16:42:53;8.07;;;5.70;;
35693;SDS011;21812;55.536;37.664;2023-04-01T16:48:35;8.82;;;6.10;;
35693;SDS011;21812;55.536;37.664;2023-04-01T16:51:18;9.63;;;6.40;;
35693;SDS011;21812;55.536;37.664;2023-04-01T16:53:48;10.32;;;6.05;;
35693;SDS011;21812;55.536;37.664;2023-04-01T16:56:27;9.85;;;6.25;;
35693;SDS011;21812;55.536;37.664;2023-04-01T17:04:30;9.27;;;7.30;;
35693;SDS011;21812;55.536;37.664;2023-04-01T17:48:08;9.93;;;6.18;;
35693;SDS011;21812;55.536;37.664;2023-04-01T18:12:13;9.52;;;6.60;;
35693;SDS011;21812;55.536;37.664;2023-04-01T18:15:02;8.32;;;6.15;;
35693;SDS011;21812;55.536;37.664;2023-04-01T18:22:58;11.93;;;7.30;;
35693;SDS011;21812;55.536;37.664;2023-04-01T18:25:35;13.02;;;7.40;;
35693;SDS011;21812;55.536;37.664;2023-04-01T18:39:37;11.30;;;7.20;;
35693;SDS011;21812;55.536;37.664;2023-04-01T18:47:44;11.68;;;6.72;;
35693;SDS011;21812;55.536;37.664;2023-04-01T18:50:27;12.68;;;9.10;;
35693;SDS011;21812;55.536;37.664;2023-04-01T18:55:49;11.15;;;7.43;;
35693;SDS011;21812;55.536;37.664;2023-04-01T18:58:24;10.73;;;7.15;;
35693;SDS011;21812;55.536;37.664;2023-04-01T19:01:04;12.68;;;8.73;;
35693;SDS011;21812;55.536;37.664;2023-04-01T19:06:20;11.43;;;8.07;;
35693;SDS011;21812;55.536;37.664;2023-04-01T19:08:47;9.48;;;7.00;;
35693;SDS011;21812;55.536;37.664;2023-04-01T19:11:17;10.13;;;7.32;;
35693;SDS011;21812;55.536;37.664;2023-04-01T19:14:20;11.30;;;7.45;;
35693;SDS011;21812;55.536;37.664;2023-04-01T19:16:46;10.82;;;7.30;;
35693;SDS011;21812;55.536;37.664;2023-04-01T19:36:31;9.63;;;7.10;;
35693;SDS011;21812;55.536;37.664;2023-04-01T20:00:02;13.60;;;7.97;;
35693;SDS011;21812;55.536;37.664;2023-04-01T20:16:49;13.25;;;9.68;;
35693;SDS011;21812;55.536;37.664;2023-04-01T20:19:28;13.48;;;8.75;;
35693;SDS011;21812;55.536;37.664;2023-04-01T20:22:04;17.67;;;8.65;;
35693;SDS011;21812;55.536;37.664;2023-04-01T20:24:44;15.10;;;8.57;;
35693;SDS011;21812;55.536;37.664;2023-04-01T20:32:45;12.70;;;8.38;;
35693;SDS011;21812;55.536;37.664;2023-04-01T20:40:57;12.65;;;8.38;;
35693;SDS011;21812;55.536;37.664;2023-04-01T20:43:48;12.60;;;8.88;;
35693;SDS011;21812;55.536;37.664;2023-04-01T20:46:27;13.18;;;8.32;;
35693;SDS011;21812;55.536;37.664;2023-04-01T21:00:02;12.52;;;8.90;;
35693;SDS011;21812;55.536;37.664;2023-04-01T21:10:32;17.17;;;9.68;;
35693;SDS011;21812;55.536;37.664;2023-04-01T21:21:34;15.60;;;10.38;;
35693;SDS011;21812;55.536;37.664;2023-04-01T21:35:37;14.80;;;8.98;;
35693;SDS011;21812;55.536;37.664;2023-04-01T22:00:25;13.38;;;8.77;;
35693;SDS011;21812;55.536;37.664;2023-04-01T22:28:07;12.77;;;9.45;;
35693;SDS011;21812;55.536;37.664;2023-04-01T22:30:49;18.45;;;10.40;;
35693;SDS011;21812;55.536;37.664;2023-04-01T22:33:22;14.55;;;8.70;;
35693;SDS011;21812;55.536;37.664;2023-04-01T22:38:57;15.07;;;10.00;;
35693;SDS011;21812;55.536;37.664;2023-04-01T22:44:40;15.68;;;10.27;;
35693;SDS011;21812;55.536;37.664;2023-04-01T22:55:08;16.85;;;11.20;;
35693;SDS011;21812;55.536;37.664;2023-04-01T22:57:41;17.65;;;9.80;;
35693;SDS011;21812;55.536;37.664;2023-04-01T23:05:47;16.15;;;10.27;;
35693;SDS011;21812;55.536;37.664;2023-04-01T23:11:28;15.43;;;9.57;;
35693;SDS011;21812;55.536;37.664;2023-04-01T23:16:48;16.52;;;10.45;;
35693;SDS011;21812;55.536;37.664;2023-04-01T23:21:59;19.33;;;11.93;;
35693;SDS011;21812;55.536;37.664;2023-04-01T23:27:36;20.65;;;11.40;;
35693;SDS011;21812;55.536;37.664;2023-04-01T23:30:54;21.08;;;11.73;;
35693;SDS011;21812;55.536;37.664;2023-04-01T23:36:10;17.60;;;11.60;;
35693;SDS011;21812;55.536;37.664;2023-04-01T23:38:39;23.38;;;12.10;;
35693;SDS011;21812;55.536;37.664;2023-04-01T23:41:07;18.35;;;11.63;;
35693;SDS011;21812;55.536;37.664;2023-04-01T23:43:57;19.90;;;11.32;;
35693;SDS011;21812;55.536;37.664;2023-04-01T23:46:25;21.55;;;11.18;;
35693;SDS011;21812;55.536;37.664;2023-04-01T23:48:54;16.98;;;11.55;;
35693;SDS011;21812;55.536;37.664;2023-04-01T23:56:53;20.83;;;12.30;;
